Duncanville, Alabama
Current Conditions -  °F | °C
As of 3:53 AM on Monday 22 Dec 2014 (Local Time) from KTCL Reporting Station
Haze Haze  
Wind Chill: 52°   Ceiling: 800
Heat Index: 52°   Visibility: 5mi
Dew Point: 49°   Wind: 5mph
Humidity: 89%   Direction: 100°E
Pressure: 29.95"   Gusts: NA
Location:  33.06°N, 87.45°W
Report Text: KTCL 220953Z AUTO 10004KT 5SM BR OVC008 11/09 A2995 RMK AO2 SLP142 T01110094
Loading
Personal Weather Stations






























Interactive Weather Map New forecast layout! Learn more

10-Day Weather Forecast

Advertisements
Track Severe Weather on mobile